Ballard, West Virginia
Current Conditions -  °F | °C
As of 2:15 PM on Thursday 18 Dec 2014 (Local Time) from KPSK Reporting Station
Clear Clear  
Wind Chill: 43°   Ceiling: Unl
Heat Index: 43°   Visibility: 10mi
Dew Point: 25°   Wind: 3mph
Humidity: 49%   Direction: 260°W
Pressure: 30.07"   Gusts: NA
Location:  37.47°N, 80.78°W
Report Text: KPSK 181915Z AUTO 26003KT 10SM CLR 06/M04 A3007 RMK AO2 T00601040
Loading
Personal Weather Stations






























Interactive Weather Map New forecast layout! Learn more

10-Day Weather Forecast

Advertisements
Track Severe Weather on mobile